createdAt,value
2016-08-13T00:00:44.989Z,22.52
2016-08-13T00:01:45.015Z,22.51
2016-08-13T00:02:43.424Z,22.49
2016-08-13T00:03:44.408Z,22.49
2016-08-13T00:04:44.303Z,22.51
2016-08-13T00:05:45.109Z,22.51
2016-08-13T00:06:44.970Z,22.51
2016-08-13T00:07:44.225Z,22.49
2016-08-13T00:08:44.343Z,22.52
2016-08-13T00:09:45.352Z,22.45
2016-08-13T00:10:45.077Z,22.55
2016-08-13T00:11:44.187Z,22.54
2016-08-13T00:12:44.899Z,22.58
2016-08-13T00:13:44.363Z,22.46
2016-08-13T00:14:44.992Z,22.51
2016-08-13T00:15:44.996Z,22.47
2016-08-13T00:16:44.393Z,22.47
2016-08-13T00:17:43.645Z,22.51
2016-08-13T00:18:44.282Z,22.54
2016-08-13T00:19:44.993Z,22.6
2016-08-13T00:20:44.388Z,22.47
2016-08-13T00:21:44.321Z,22.58
2016-08-13T00:22:44.340Z,22.55
2016-08-13T00:23:45.149Z,22.49
2016-08-13T00:24:45.097Z,22.54
2016-08-13T00:25:44.980Z,22.54
2016-08-13T00:26:45.067Z,22.51
2016-08-13T00:27:44.385Z,22.49
2016-08-13T00:28:45.103Z,22.52
2016-08-13T00:29:44.603Z,22.58
2016-08-13T00:30:45.141Z,22.49
2016-08-13T00:31:45.123Z,22.54
2016-08-13T00:32:44.422Z,22.52
2016-08-13T00:33:45.239Z,22.52
2016-08-13T00:34:44.405Z,22.49
2016-08-13T00:35:45.159Z,22.54
2016-08-13T00:36:44.538Z,22.51
2016-08-13T00:37:44.477Z,22.58
2016-08-13T00:38:45.232Z,22.45
2016-08-13T00:39:44.436Z,22.54
2016-08-13T00:40:45.149Z,22.55
2016-08-13T00:41:43.739Z,22.51
2016-08-13T00:42:44.370Z,22.49
2016-08-13T00:43:46.114Z,22.54
2016-08-13T00:44:46.286Z,22.55
2016-08-13T00:45:45.194Z,22.55
2016-08-13T00:46:44.395Z,22.47
2016-08-13T00:47:44.556Z,22.47
2016-08-13T00:48:45.117Z,22.52
2016-08-13T00:49:44.515Z,22.55
2016-08-13T00:50:45.483Z,22.62
2016-08-13T00:51:44.558Z,22.51
2016-08-13T00:52:45.194Z,22.52
2016-08-13T00:53:44.540Z,22.54
2016-08-13T00:54:44.453Z,22.52
2016-08-13T00:55:43.902Z,22.52
2016-08-13T00:56:45.325Z,22.58
2016-08-13T00:57:45.242Z,22.57
2016-08-13T00:58:45.177Z,22.55
2016-08-13T00:59:44.475Z,22.54
2016-08-13T01:00:43.933Z,22.47
2016-08-13T01:01:44.514Z,22.61
2016-08-13T01:02:45.402Z,22.52
2016-08-13T01:03:43.910Z,22.54
2016-08-13T01:04:45.319Z,22.55
2016-08-13T01:05:44.743Z,22.6
2016-08-13T01:06:44.573Z,22.57
2016-08-13T01:07:44.583Z,22.52
2016-08-13T01:08:44.697Z,22.46
2016-08-13T01:09:44.608Z,22.47
2016-08-13T01:10:45.356Z,22.52
2016-08-13T01:11:44.755Z,22.47
2016-08-13T01:12:44.635Z,22.54
2016-08-13T01:13:44.819Z,22.51
2016-08-13T01:14:45.557Z,22.52
2016-08-13T01:15:44.710Z,22.47
2016-08-13T01:16:45.295Z,22.51
2016-08-13T01:17:44.590Z,22.52
2016-08-13T01:18:45.458Z,22.55
2016-08-13T01:19:43.897Z,22.54
2016-08-13T01:20:45.403Z,22.47
2016-08-13T01:21:44.663Z,22.49
2016-08-13T01:22:45.385Z,22.47
2016-08-13T01:23:44.853Z,22.51
2016-08-13T01:24:45.555Z,22.61
2016-08-13T01:25:44.634Z,22.47
2016-08-13T01:26:44.654Z,22.47
2016-08-13T01:27:43.970Z,22.46
2016-08-13T01:28:45.480Z,22.52
2016-08-13T01:29:43.954Z,22.46
2016-08-13T01:30:44.072Z,22.49
2016-08-13T01:31:45.480Z,22.54
2016-08-13T01:32:45.438Z,22.46
2016-08-13T01:33:45.415Z,22.52
2016-08-13T01:34:44.791Z,22.45
2016-08-13T01:35:45.605Z,22.51
2016-08-13T01:36:44.847Z,22.47
2016-08-13T01:37:45.441Z,22.51
2016-08-13T01:38:44.940Z,22.49
2016-08-13T01:39:45.523Z,22.46
2016-08-13T01:40:45.497Z,22.46
2016-08-13T01:41:45.583Z,22.45
2016-08-13T01:42:44.812Z,22.46
2016-08-13T01:43:45.561Z,22.52
2016-08-13T01:44:44.866Z,22.52
2016-08-13T01:45:44.766Z,22.6
2016-08-13T01:46:44.835Z,22.52
2016-08-13T01:47:45.482Z,22.55
2016-08-13T01:48:45.485Z,22.51
2016-08-13T01:49:44.789Z,22.49
2016-08-13T01:50:44.796Z,22.51
2016-08-13T01:51:44.091Z,22.45
2016-08-13T01:52:44.817Z,22.46
2016-08-13T01:53:44.882Z,22.43
2016-08-13T01:54:44.812Z,22.52
2016-08-13T01:55:44.871Z,22.47
2016-08-13T01:56:44.914Z,22.45
2016-08-13T01:57:45.599Z,22.54
2016-08-13T01:58:44.941Z,22.47
2016-08-13T01:59:44.895Z,22.55
2016-08-13T02:00:44.908Z,22.47
2016-08-13T02:01:45.689Z,22.54
2016-08-13T02:02:44.866Z,22.51
2016-08-13T02:03:45.665Z,22.52
2016-08-13T02:04:44.238Z,22.51
2016-08-13T02:05:45.606Z,22.54
2016-08-13T02:06:45.628Z,22.51
2016-08-13T02:07:44.971Z,22.55
2016-08-13T02:08:44.900Z,22.58
2016-08-13T02:09:45.722Z,22.57
2016-08-13T02:10:44.222Z,22.57
2016-08-13T02:11:45.627Z,22.49
2016-08-13T02:12:45.639Z,22.52
2016-08-13T02:13:45.860Z,22.62
2016-08-13T02:14:45.694Z,22.58
2016-08-13T02:15:45.697Z,22.43
2016-08-13T02:16:44.246Z,22.51
2016-08-13T02:17:45.126Z,22.52
2016-08-13T02:18:45.784Z,22.46
2016-08-13T02:19:44.258Z,22.52
2016-08-13T02:20:45.788Z,22.51
2016-08-13T02:21:45.074Z,22.47
2016-08-13T02:22:44.278Z,22.47
2016-08-13T02:23:45.785Z,22.49
2016-08-13T02:24:45.025Z,22.47
2016-08-13T02:25:44.999Z,22.46
2016-08-13T02:26:45.880Z,22.45
2016-08-13T02:27:45.755Z,22.49
2016-08-13T02:28:45.871Z,22.55
2016-08-13T02:29:45.730Z,22.47
2016-08-13T02:30:45.159Z,22.49
2016-08-13T02:31:45.879Z,22.49
2016-08-13T02:32:45.157Z,22.43
2016-08-13T02:33:45.049Z,22.49
2016-08-13T02:34:45.775Z,22.42
2016-08-13T02:35:45.075Z,22.51
2016-08-13T02:36:45.216Z,22.46
2016-08-13T02:37:45.083Z,22.47
2016-08-13T02:38:45.151Z,22.45
2016-08-13T02:39:45.900Z,22.39
2016-08-13T02:40:45.866Z,22.4
2016-08-13T02:41:45.107Z,22.4
2016-08-13T02:42:44.507Z,22.4
2016-08-13T02:43:45.117Z,22.37
2016-08-13T02:44:45.183Z,22.39
2016-08-13T02:45:45.121Z,22.4
2016-08-13T02:46:45.128Z,22.46
2016-08-13T02:47:44.484Z,22.43
2016-08-13T02:48:45.286Z,22.36
2016-08-13T02:49:45.883Z,22.43
2016-08-13T02:50:45.204Z,22.4
2016-08-13T02:51:45.958Z,22.47
2016-08-13T02:52:44.528Z,22.33
2016-08-13T02:53:45.921Z,22.4
2016-08-13T02:54:45.911Z,22.37
2016-08-13T02:55:45.967Z,22.39
2016-08-13T02:56:45.955Z,22.47
2016-08-13T02:57:45.210Z,22.39
2016-08-13T02:58:45.201Z,22.43
2016-08-13T02:59:44.655Z,22.33
2016-08-13T03:00:45.214Z,22.37
2016-08-13T03:01:45.355Z,22.4
2016-08-13T03:02:45.227Z,22.42
2016-08-13T03:03:45.462Z,22.47
2016-08-13T03:04:45.999Z,22.4
2016-08-13T03:05:46.018Z,22.45
2016-08-13T03:06:44.591Z,22.39
2016-08-13T03:07:44.596Z,22.45
2016-08-13T03:08:46.065Z,22.45
2016-08-13T03:09:45.390Z,22.4
2016-08-13T03:10:45.272Z,22.43
2016-08-13T03:11:45.285Z,22.37
2016-08-13T03:12:45.281Z,22.42
2016-08-13T03:13:46.043Z,22.37
2016-08-13T03:14:45.320Z,22.46
2016-08-13T03:15:46.095Z,22.39
2016-08-13T03:16:45.317Z,22.4
2016-08-13T03:17:45.309Z,22.4
2016-08-13T03:18:45.318Z,22.39
2016-08-13T03:19:45.373Z,22.31
2016-08-13T03:20:46.084Z,22.33
2016-08-13T03:21:46.059Z,22.43
2016-08-13T03:22:46.066Z,22.37
2016-08-13T03:23:46.305Z,22.45
2016-08-13T03:24:46.151Z,22.35
2016-08-13T03:25:46.149Z,22.35
2016-08-13T03:26:46.122Z,22.37
2016-08-13T03:27:46.124Z,22.31
2016-08-13T03:28:45.455Z,22.28
2016-08-13T03:29:45.464Z,22.4
2016-08-13T03:30:45.385Z,22.36
2016-08-13T03:31:46.221Z,22.47
2016-08-13T03:32:46.108Z,22.36
2016-08-13T03:33:45.642Z,22.35
2016-08-13T03:34:44.701Z,22.37
2016-08-13T03:35:46.178Z,22.42
2016-08-13T03:36:45.430Z,22.37
2016-08-13T03:37:44.731Z,22.36
2016-08-13T03:38:46.207Z,22.37
2016-08-13T03:39:45.436Z,22.35
2016-08-13T03:40:44.738Z,22.25
2016-08-13T03:41:45.571Z,22.31
2016-08-13T03:42:45.658Z,22.31
2016-08-13T03:43:46.166Z,22.3
2016-08-13T03:44:46.240Z,22.33
2016-08-13T03:45:46.218Z,22.25
2016-08-13T03:46:45.609Z,22.3
2016-08-13T03:47:45.529Z,22.31
2016-08-13T03:48:45.495Z,22.4
2016-08-13T03:49:45.642Z,22.4
2016-08-13T03:50:45.503Z,22.31
2016-08-13T03:51:45.504Z,22.25
2016-08-13T03:52:46.287Z,22.31
2016-08-13T03:53:45.646Z,22.35
2016-08-13T03:54:46.305Z,22.28
2016-08-13T03:55:45.568Z,22.3
2016-08-13T03:56:45.599Z,22.28
2016-08-13T03:57:46.264Z,22.28
2016-08-13T03:58:45.641Z,22.33
2016-08-13T03:59:45.702Z,22.4
2016-08-13T04:00:44.855Z,22.43
2016-08-13T04:01:45.564Z,22.33
2016-08-13T04:02:45.621Z,22.3
2016-08-13T04:03:45.572Z,22.27
2016-08-13T04:04:46.387Z,22.28
2016-08-13T04:05:45.634Z,22.3
2016-08-13T04:06:45.597Z,22.28
2016-08-13T04:07:46.431Z,22.27
2016-08-13T04:08:45.633Z,22.33
2016-08-13T04:09:45.607Z,22.25
2016-08-13T04:10:46.020Z,22.31
2016-08-13T04:11:45.018Z,22.31
2016-08-13T04:12:45.631Z,22.25
2016-08-13T04:13:46.574Z,22.3
2016-08-13T04:14:46.386Z,22.4
2016-08-13T04:15:44.947Z,22.33
2016-08-13T04:16:44.943Z,22.27
2016-08-13T04:17:44.952Z,22.3
2016-08-13T04:18:46.379Z,22.39
2016-08-13T04:19:45.675Z,22.39
2016-08-13T04:20:46.506Z,22.37
2016-08-13T04:21:46.460Z,22.3
2016-08-13T04:22:45.687Z,22.25
2016-08-13T04:23:45.902Z,22.28
2016-08-13T04:24:45.703Z,22.28
2016-08-13T04:25:46.413Z,22.43
2016-08-13T04:26:45.737Z,22.25
2016-08-13T04:27:45.716Z,22.3
2016-08-13T04:28:45.918Z,22.37
2016-08-13T04:29:45.729Z,22.28
2016-08-13T04:30:45.741Z,22.37
2016-08-13T04:31:45.793Z,22.3
2016-08-13T04:32:46.537Z,22.31
2016-08-13T04:33:45.756Z,22.28
2016-08-13T04:34:46.472Z,22.27
2016-08-13T04:35:45.816Z,22.28
2016-08-13T04:36:45.789Z,22.31
2016-08-13T04:37:45.071Z,22.28
2016-08-13T04:38:45.884Z,22.27
2016-08-13T04:39:45.832Z,22.31
2016-08-13T04:40:45.899Z,22.31
2016-08-13T04:41:45.815Z,22.27
2016-08-13T04:42:46.566Z,22.36
2016-08-13T04:43:45.813Z,22.42
2016-08-13T04:44:46.561Z,22.33
2016-08-13T04:45:46.603Z,22.35
2016-08-13T04:46:45.858Z,22.28
2016-08-13T04:47:45.854Z,22.33
2016-08-13T04:48:45.863Z,22.28
2016-08-13T04:49:46.558Z,22.27
2016-08-13T04:50:46.664Z,22.24
2016-08-13T04:51:46.642Z,22.27
2016-08-13T04:52:45.950Z,22.3
2016-08-13T04:53:46.581Z,22.24
2016-08-13T04:54:46.607Z,22.24
2016-08-13T04:55:45.969Z,22.31
2016-08-13T04:56:45.184Z,22.28
2016-08-13T04:57:46.663Z,22.43
2016-08-13T04:58:46.605Z,22.42
2016-08-13T04:59:45.925Z,22.36
2016-08-13T05:00:45.911Z,22.35
2016-08-13T05:01:46.034Z,22.36
2016-08-13T05:02:45.923Z,22.39
2016-08-13T05:03:45.933Z,22.45
2016-08-13T05:04:45.940Z,22.42
2016-08-13T05:05:46.658Z,22.43
2016-08-13T05:06:45.963Z,22.47
2016-08-13T05:07:46.666Z,22.47
2016-08-13T05:08:45.965Z,22.47
2016-08-13T05:09:45.262Z,22.45
2016-08-13T05:10:45.977Z,22.46
2016-08-13T05:11:46.688Z,22.54
2016-08-13T05:12:45.992Z,22.47
2016-08-13T05:13:46.047Z,22.61
2016-08-13T05:14:46.003Z,22.58
2016-08-13T05:15:46.084Z,22.55
2016-08-13T05:16:46.777Z,22.65
2016-08-13T05:17:46.022Z,22.67
2016-08-13T05:18:46.739Z,22.64
2016-08-13T05:19:45.385Z,22.73
2016-08-13T05:20:46.139Z,22.65
2016-08-13T05:21:45.348Z,22.73
2016-08-13T05:22:46.185Z,22.82
2016-08-13T05:23:46.212Z,22.79
2016-08-13T05:24:46.156Z,22.75
2016-08-13T05:25:46.288Z,22.75
2016-08-13T05:26:46.092Z,22.73
2016-08-13T05:27:46.808Z,22.61
2016-08-13T05:28:46.109Z,22.64
2016-08-13T05:29:45.414Z,22.6
2016-08-13T05:30:46.126Z,22.7
2016-08-13T05:31:46.839Z,22.75
2016-08-13T05:32:45.431Z,22.75
2016-08-13T05:33:46.146Z,22.73
2016-08-13T05:34:46.304Z,22.76
2016-08-13T05:35:46.162Z,22.82
2016-08-13T05:36:46.172Z,22.85
2016-08-13T05:37:46.882Z,22.85
2016-08-13T05:38:46.184Z,22.82
2016-08-13T05:39:46.191Z,22.83
2016-08-13T05:40:46.909Z,22.88
2016-08-13T05:41:46.205Z,22.8
2016-08-13T05:42:46.210Z,22.83
2016-08-13T05:43:46.299Z,22.83
2016-08-13T05:44:46.995Z,22.85
2016-08-13T05:45:46.942Z,22.8
2016-08-13T05:46:46.239Z,22.76
2016-08-13T05:47:46.249Z,22.67
2016-08-13T05:48:46.958Z,22.67
2016-08-13T05:49:46.967Z,22.72
2016-08-13T05:50:46.979Z,22.67
2016-08-13T05:51:46.277Z,22.7
2016-08-13T05:52:46.997Z,22.65
2016-08-13T05:53:45.578Z,22.64
2016-08-13T05:54:46.295Z,22.72
2016-08-13T05:55:46.302Z,22.64
2016-08-13T05:56:47.020Z,22.65
2016-08-13T05:57:46.323Z,22.54
2016-08-13T05:58:46.334Z,22.58
2016-08-13T05:59:47.030Z,22.57
2016-08-13T06:00:46.329Z,22.57
2016-08-13T06:01:46.341Z,22.61
2016-08-13T06:02:45.639Z,22.62
2016-08-13T06:03:47.074Z,22.61
2016-08-13T06:04:46.355Z,22.54
2016-08-13T06:05:46.360Z,22.57
2016-08-13T06:06:47.074Z,22.62
2016-08-13T06:07:47.131Z,22.55
2016-08-13T06:08:46.429Z,22.55
2016-08-13T06:09:45.678Z,22.51
2016-08-13T06:10:46.395Z,22.54
2016-08-13T06:11:47.103Z,22.6
2016-08-13T06:12:46.403Z,22.58
2016-08-13T06:13:46.458Z,22.58
2016-08-13T06:14:46.415Z,22.55
2016-08-13T06:15:45.721Z,22.55
2016-08-13T06:16:47.136Z,22.6
2016-08-13T06:17:46.435Z,22.61
2016-08-13T06:18:47.155Z,22.58
2016-08-13T06:19:45.739Z,22.58
2016-08-13T06:20:46.463Z,22.57
2016-08-13T06:21:47.170Z,22.6
2016-08-13T06:22:46.465Z,22.61
2016-08-13T06:23:47.176Z,22.49
2016-08-13T06:24:47.211Z,22.47
2016-08-13T06:25:46.494Z,22.51
2016-08-13T06:26:47.239Z,22.49
2016-08-13T06:27:47.206Z,22.58
2016-08-13T06:28:47.291Z,22.57
2016-08-13T06:29:45.903Z,22.45
2016-08-13T06:30:46.537Z,22.61
2016-08-13T06:31:46.592Z,22.45
2016-08-13T06:32:46.531Z,22.58
2016-08-13T06:33:47.240Z,22.49
2016-08-13T06:34:46.535Z,22.52
2016-08-13T06:35:47.250Z,22.47
2016-08-13T06:36:46.600Z,22.47
2016-08-13T06:37:46.554Z,22.46
2016-08-13T06:38:47.282Z,22.55
2016-08-13T06:39:46.570Z,22.51
2016-08-13T06:40:46.579Z,22.47
2016-08-13T06:41:46.589Z,22.57
2016-08-13T06:42:45.879Z,22.55
2016-08-13T06:43:47.305Z,22.68
2016-08-13T06:44:46.598Z,22.68
2016-08-13T06:45:45.894Z,22.79
2016-08-13T06:46:45.902Z,22.8
2016-08-13T06:47:47.324Z,22.97
2016-08-13T06:48:46.622Z,23.02
2016-08-13T06:49:45.927Z,23.17
2016-08-13T06:50:45.927Z,23.28
2016-08-13T06:51:46.642Z,23.43
2016-08-13T06:52:46.651Z,23.48
2016-08-13T06:53:46.662Z,23.55
2016-08-13T06:54:45.960Z,23.55
2016-08-13T06:55:45.972Z,23.66
2016-08-13T06:56:47.389Z,23.57
2016-08-13T06:57:45.988Z,23.61
2016-08-13T06:58:46.705Z,23.66
2016-08-13T06:59:47.413Z,23.72
2016-08-13T07:00:47.430Z,23.76
2016-08-13T07:01:47.432Z,23.79
2016-08-13T07:02:47.440Z,23.8
2016-08-13T07:03:46.743Z,23.94
2016-08-13T07:04:46.820Z,23.88
2016-08-13T07:05:46.759Z,23.93
2016-08-13T07:06:46.766Z,23.93
2016-08-13T07:07:47.537Z,23.97
2016-08-13T07:08:46.840Z,24.02
2016-08-13T07:09:46.822Z,24.06
2016-08-13T07:10:46.891Z,24.03
2016-08-13T07:11:46.950Z,24.03
2016-08-13T07:12:46.874Z,24.06
2016-08-13T07:13:46.832Z,24.13
2016-08-13T07:14:47.591Z,24.25
2016-08-13T07:15:46.902Z,24.31
2016-08-13T07:16:46.999Z,24.3
2016-08-13T07:17:46.334Z,24.28
2016-08-13T07:18:46.890Z,24.4
2016-08-13T07:19:47.715Z,24.35
2016-08-13T07:20:47.621Z,24.42
2016-08-13T07:21:47.613Z,24.2
2016-08-13T07:22:47.011Z,24.02
2016-08-13T07:23:47.629Z,23.84
2016-08-13T07:24:47.653Z,23.73
2016-08-13T07:25:47.019Z,23.6
2016-08-13T07:26:47.676Z,23.47
2016-08-13T07:27:47.666Z,23.46
2016-08-13T07:28:47.029Z,23.43
2016-08-13T07:29:47.728Z,23.39
2016-08-13T07:30:47.039Z,23.39
2016-08-13T07:31:46.996Z,23.33
2016-08-13T07:32:47.710Z,23.28
2016-08-13T07:33:47.732Z,23.36
2016-08-13T07:34:47.744Z,23.33
2016-08-13T07:35:47.027Z,23.33
2016-08-13T07:36:47.186Z,23.31
2016-08-13T07:37:47.748Z,23.19
2016-08-13T07:38:47.046Z,23.17
2016-08-13T07:39:46.483Z,23.22
2016-08-13T07:40:47.098Z,23.16
2016-08-13T07:41:47.966Z,23.13
2016-08-13T07:42:47.781Z,23.23
2016-08-13T07:43:46.385Z,23.17
2016-08-13T07:44:47.867Z,23.22
2016-08-13T07:45:47.096Z,23.23
2016-08-13T07:46:47.214Z,23.13
2016-08-13T07:47:47.116Z,23.27
2016-08-13T07:48:47.825Z,23.16
2016-08-13T07:49:47.126Z,23.23
2016-08-13T07:50:46.423Z,23.19
2016-08-13T07:51:47.148Z,23.27
2016-08-13T07:52:47.858Z,23.2
2016-08-13T07:53:47.152Z,23.22
2016-08-13T07:54:46.541Z,23.16
2016-08-13T07:55:47.876Z,23.27
2016-08-13T07:56:47.178Z,23.15
2016-08-13T07:57:47.888Z,23.12
2016-08-13T07:58:47.897Z,23.16
2016-08-13T07:59:47.912Z,23.25
2016-08-13T08:00:47.207Z,23.16
2016-08-13T08:01:47.208Z,23.12
2016-08-13T08:02:47.925Z,23.19
2016-08-13T08:03:47.223Z,23.15
2016-08-13T08:04:47.231Z,23.25
2016-08-13T08:05:47.951Z,23.27
2016-08-13T08:06:47.950Z,23.16
2016-08-13T08:07:47.959Z,23.1
2016-08-13T08:08:47.970Z,23.22
2016-08-13T08:09:47.268Z,23.15
2016-08-13T08:10:47.371Z,23.2
2016-08-13T08:11:47.988Z,23.22
2016-08-13T08:12:47.998Z,23.15
2016-08-13T08:13:47.290Z,23.2
2016-08-13T08:14:48.010Z,23.23
2016-08-13T08:15:46.598Z,23.12
2016-08-13T08:16:47.337Z,23.2
2016-08-13T08:17:46.660Z,23.17
2016-08-13T08:18:48.077Z,23.23
2016-08-13T08:19:48.048Z,23.17
2016-08-13T08:20:47.336Z,23.25
2016-08-13T08:21:48.051Z,23.28
2016-08-13T08:22:46.644Z,23.2
2016-08-13T08:23:47.356Z,23.2
2016-08-13T08:24:48.073Z,23.23
2016-08-13T08:25:46.680Z,23.22
2016-08-13T08:26:47.394Z,23.13
2016-08-13T08:27:47.450Z,23.2
2016-08-13T08:28:48.105Z,23.22
2016-08-13T08:29:48.109Z,23.27
2016-08-13T08:30:47.408Z,23.22
2016-08-13T08:31:47.415Z,23.23
2016-08-13T08:32:46.715Z,23.25
2016-08-13T08:37:02.982Z,23.15
2016-08-13T08:37:33.937Z,23.15
2016-08-13T08:38:34.706Z,23.16
2016-08-13T08:39:33.968Z,23.17
2016-08-13T08:40:33.959Z,23.17
2016-08-13T08:41:34.672Z,23.17
2016-08-13T08:42:35.085Z,23.1
2016-08-13T08:43:33.320Z,23.17
2016-08-13T08:44:34.748Z,23.25
2016-08-13T08:45:34.699Z,23.22
2016-08-13T08:46:34.709Z,23.16
2016-08-13T08:47:34.009Z,23.17
2016-08-13T08:48:34.721Z,23.2
2016-08-13T08:49:34.772Z,23.19
2016-08-13T08:50:34.027Z,23.13
2016-08-13T08:51:33.321Z,23.09
2016-08-13T08:52:34.749Z,23.12
2016-08-13T08:53:34.799Z,23.15
2016-08-13T08:54:34.758Z,23.1
2016-08-13T08:55:34.052Z,23.15
2016-08-13T08:56:34.767Z,23.13
2016-08-13T08:57:34.070Z,23.16
2016-08-13T08:58:34.075Z,23.15
2016-08-13T08:59:33.376Z,23.2
2016-08-13T09:00:34.092Z,23.15
2016-08-13T09:01:34.094Z,23.16
2016-08-13T09:02:34.808Z,23.28
2016-08-13T09:03:33.404Z,23.22
2016-08-13T09:04:34.822Z,23.1
2016-08-13T09:05:34.826Z,23.16
2016-08-13T09:06:35.102Z,23.2
2016-08-13T09:07:33.425Z,23.13
2016-08-13T09:08:34.142Z,23.23
2016-08-13T09:09:34.154Z,23.17
2016-08-13T09:10:34.150Z,23.13
2016-08-13T09:11:33.557Z,23.15
2016-08-13T09:12:33.462Z,23.15
2016-08-13T09:13:34.325Z,23.1
2016-08-13T09:14:34.233Z,23.17
2016-08-13T09:15:35.913Z,23.2
2016-08-13T09:16:34.190Z,23.15
2016-08-13T09:17:35.304Z,23.17
2016-08-13T09:18:34.917Z,23.15
2016-08-13T09:19:33.557Z,23.15
2016-08-13T09:20:34.929Z,23.09
2016-08-13T09:21:34.230Z,23.15
2016-08-13T09:22:34.940Z,23.09
2016-08-13T09:23:34.239Z,23.15
2016-08-13T09:24:34.249Z,23.22
2016-08-13T09:25:34.966Z,23.17
2016-08-13T09:26:35.214Z,23.09
2016-08-13T09:27:34.270Z,23.1
2016-08-13T09:28:34.326Z,23.15
2016-08-13T09:29:33.577Z,23.13
2016-08-13T09:30:34.292Z,23.07
2016-08-13T09:31:34.295Z,23.05
2016-08-13T09:32:34.304Z,23.16
2016-08-13T09:33:35.015Z,23.15
2016-08-13T09:34:34.317Z,23.16
2016-08-13T09:35:34.324Z,23.17
2016-08-13T09:36:35.035Z,23.13
2016-08-13T09:37:35.044Z,23.2
2016-08-13T09:38:35.049Z,23.15
2016-08-13T09:39:33.691Z,23.2
2016-08-13T09:40:33.650Z,23.12
2016-08-13T09:41:34.364Z,23.15
2016-08-13T09:42:35.083Z,23.22
2016-08-13T09:43:34.386Z,23.17
2016-08-13T09:44:34.383Z,23.09
2016-08-13T09:45:33.696Z,23.2
2016-08-13T09:46:35.108Z,23.15
2016-08-13T09:47:33.698Z,23.13
2016-08-13T09:48:34.411Z,23.04
2016-08-13T09:49:35.124Z,23.07
2016-08-13T09:50:35.675Z,23.02
2016-08-13T09:51:35.143Z,23.05
2016-08-13T09:52:33.732Z,23.15
2016-08-13T09:53:35.151Z,23.05
2016-08-13T09:54:34.447Z,23.19
2016-08-13T09:55:34.459Z,23.13
2016-08-13T09:56:34.515Z,23.15
2016-08-13T09:57:34.478Z,23.07
2016-08-13T09:58:34.478Z,23.05
2016-08-13T09:59:35.845Z,23.01
2016-08-13T10:00:34.487Z,23.07
2016-08-13T10:01:36.204Z,23.15
2016-08-13T10:02:35.210Z,23.1
2016-08-13T10:03:33.802Z,23.01
2016-08-13T10:04:34.525Z,23
2016-08-13T10:05:34.524Z,23.1
2016-08-13T10:06:34.529Z,23.05
2016-08-13T10:07:35.255Z,22.98
2016-08-13T10:08:34.539Z,23.07
2016-08-13T10:09:33.842Z,23
2016-08-13T10:10:36.315Z,23.15
2016-08-13T10:11:35.316Z,23.2
2016-08-13T10:12:35.824Z,23.17
2016-08-13T10:13:35.332Z,23.15
2016-08-13T10:14:34.579Z,23.12
2016-08-13T10:15:33.928Z,23.1
2016-08-13T10:16:35.307Z,23.19
2016-08-13T10:17:34.601Z,23.13
2016-08-13T10:18:34.001Z,23.13
2016-08-13T10:19:34.680Z,23.13
2016-08-13T10:20:34.627Z,23.13
2016-08-13T10:21:35.729Z,23.02
2016-08-13T10:22:34.640Z,23.13
2016-08-13T10:23:34.886Z,23.19
2016-08-13T10:24:34.660Z,23.15
2016-08-13T10:25:34.656Z,23.16
2016-08-13T10:26:35.364Z,23.16
2016-08-13T10:27:34.673Z,23.15
2016-08-13T10:28:35.729Z,23.13
2016-08-13T10:29:34.677Z,23.16
2016-08-13T10:30:35.396Z,23.12
2016-08-13T10:31:34.690Z,23.13
2016-08-13T10:32:35.605Z,23.17
2016-08-13T10:33:34.704Z,23.17
2016-08-13T10:34:34.708Z,23.16
2016-08-13T10:35:35.426Z,23.19
2016-08-13T10:36:36.034Z,23.27
2016-08-13T10:37:35.440Z,23.22
2016-08-13T10:38:35.446Z,23.25
2016-08-13T10:39:34.747Z,23.22
2016-08-13T10:40:34.804Z,23.23
2016-08-13T10:41:34.053Z,23.23
2016-08-13T10:42:35.473Z,23.13
2016-08-13T10:43:35.281Z,23.2
2016-08-13T10:44:34.074Z,23.2
2016-08-13T10:45:36.055Z,23.17
2016-08-13T10:46:34.794Z,23.15
2016-08-13T10:47:35.800Z,23.19
2016-08-13T10:48:34.806Z,23.17
2016-08-13T10:49:35.521Z,23.1
2016-08-13T10:50:34.113Z,23.13
2016-08-13T10:51:34.825Z,23.19
2016-08-13T10:52:35.544Z,23.17
2016-08-13T10:53:34.864Z,23.09
2016-08-13T10:54:34.951Z,23.13
2016-08-13T10:55:34.853Z,23.04
2016-08-13T10:56:36.673Z,23.13
2016-08-13T10:57:35.588Z,23.16
2016-08-13T10:58:35.581Z,23.13
2016-08-13T10:59:34.880Z,23.12
2016-08-13T11:00:35.599Z,23.1
2016-08-13T11:01:34.198Z,23.1
2016-08-13T11:02:35.616Z,23.05
2016-08-13T11:03:35.634Z,23.13
2016-08-13T11:04:34.914Z,23.07
2016-08-13T11:05:35.630Z,23.12
2016-08-13T11:06:34.922Z,23.1
2016-08-13T11:07:36.641Z,23.07
2016-08-13T11:08:34.941Z,23.02
2016-08-13T11:09:35.342Z,23.16
2016-08-13T11:10:34.951Z,23.13
2016-08-13T11:11:34.958Z,23.15
2016-08-13T11:12:34.965Z,23.16
2016-08-13T11:14:01.907Z,23.16
2016-08-13T11:14:34.979Z,23.1
2016-08-13T11:15:35.740Z,23.15
2016-08-13T11:16:36.328Z,23.12
2016-08-13T11:17:34.296Z,23.12
2016-08-13T11:18:35.304Z,23.05
2016-08-13T11:19:35.869Z,23.16
2016-08-13T11:20:35.023Z,23.07
2016-08-13T11:21:35.735Z,23.15
2016-08-13T11:22:35.027Z,23.13
2016-08-13T11:23:35.755Z,23.16
2016-08-13T11:24:35.041Z,23.16
2016-08-13T11:25:35.753Z,23.15
2016-08-13T11:26:35.107Z,23.15
2016-08-13T11:27:35.257Z,23.16
2016-08-13T11:28:35.782Z,23.19
2016-08-13T11:29:35.477Z,23.13
2016-08-13T11:30:35.787Z,23.17
2016-08-13T11:31:35.088Z,23.12
2016-08-13T11:32:35.806Z,23.13
2016-08-13T11:33:34.393Z,23.1
2016-08-13T11:34:35.113Z,23.13
2016-08-13T11:35:35.823Z,23.19
2016-08-13T11:36:35.122Z,23.04
2016-08-13T11:37:35.834Z,23.17
2016-08-13T11:38:34.780Z,23.13
2016-08-13T11:39:35.848Z,23.13
2016-08-13T11:40:35.147Z,23.17
2016-08-13T11:41:35.863Z,23.22
2016-08-13T11:42:34.472Z,23.17
2016-08-13T11:44:35.176Z,23.1
2016-08-13T11:45:34.475Z,23.16
2016-08-13T11:46:35.186Z,23.15
2016-08-13T11:47:35.902Z,23.19
2016-08-13T11:48:35.923Z,23.07
2016-08-13T11:49:35.207Z,23.16
2016-08-13T11:50:35.930Z,23.15
2016-08-13T11:51:36.960Z,23.16
2016-08-13T11:52:35.227Z,23.13
2016-08-13T11:53:36.339Z,23.15
2016-08-13T11:54:35.242Z,23.13
2016-08-13T11:55:35.252Z,23.16
2016-08-13T11:56:34.552Z,23.17
2016-08-13T11:57:34.557Z,23.16
2016-08-13T11:58:35.978Z,23.17
2016-08-13T11:59:35.984Z,23.2
2016-08-13T12:00:34.585Z,23.15
2016-08-13T12:01:35.290Z,23.13
2016-08-13T12:02:36.594Z,23.17
2016-08-13T12:03:34.599Z,23.13
2016-08-13T12:04:35.415Z,23.17
2016-08-13T12:05:36.022Z,23.2
2016-08-13T12:06:36.030Z,23.16
2016-08-13T12:07:34.619Z,23.09
2016-08-13T12:08:36.042Z,23.17
2016-08-13T12:09:36.051Z,23.16
2016-08-13T12:10:35.351Z,23.05
2016-08-13T12:11:35.365Z,23.04
2016-08-13T12:12:34.657Z,23.1
2016-08-13T12:13:36.276Z,23.02
2016-08-13T12:14:35.428Z,23.15
2016-08-13T12:15:35.731Z,23.02
2016-08-13T12:16:35.393Z,23.13
2016-08-13T12:17:35.397Z,23.04
2016-08-13T12:18:35.402Z,23.13
2016-08-13T12:19:36.115Z,23.09
2016-08-13T12:20:34.712Z,23.12
2016-08-13T12:21:35.422Z,23.12
2016-08-13T12:22:35.478Z,23.04
2016-08-13T12:23:35.438Z,23.15
2016-08-13T12:24:35.698Z,23.17
2016-08-13T12:25:35.452Z,23.16
2016-08-13T12:26:37.441Z,23.16
2016-08-13T12:27:35.465Z,23.17
2016-08-13T12:28:36.225Z,23.1
2016-08-13T12:29:34.768Z,23.13
2016-08-13T12:30:34.774Z,23.1
2016-08-13T12:31:35.486Z,23.09
2016-08-13T12:32:35.517Z,23.15
2016-08-13T12:33:36.267Z,23.16
2016-08-13T12:34:36.262Z,23.19
2016-08-13T12:35:36.221Z,23.17
2016-08-13T12:36:35.534Z,23.15
2016-08-13T12:37:37.177Z,23.13
2016-08-13T12:38:35.535Z,23.22
2016-08-13T12:39:36.249Z,23.16
2016-08-13T12:40:34.841Z,23.19
2016-08-13T12:41:35.557Z,23.17
2016-08-13T12:42:35.561Z,23.16
2016-08-13T12:43:36.329Z,23.12
2016-08-13T12:44:34.868Z,23.2
2016-08-13T12:45:36.297Z,23.17
2016-08-13T12:46:35.588Z,23.16
2016-08-13T12:47:35.594Z,23.16
2016-08-13T12:48:36.788Z,23.07
2016-08-13T12:49:36.313Z,23.15
2016-08-13T12:50:36.323Z,23.16
2016-08-13T12:51:35.624Z,23.17
2016-08-13T12:52:34.922Z,23.15
2016-08-13T12:53:35.635Z,23.16
2016-08-13T12:54:35.644Z,23.15
2016-08-13T12:55:36.355Z,23.15
2016-08-13T12:56:35.656Z,23.17
2016-08-13T12:57:37.495Z,23.13
2016-08-13T12:58:35.681Z,23.16
2016-08-13T12:59:37.180Z,23.22